Time;durP1;ratioP1;P1;durP2;ratioP2;P2;SDS_P1;SDS_P2;PMS_P1;PMS_P2;Temp;Humidity;BMP_temperature;BMP_pressure;BME280_temperature;BME280_humidity;BME280_pressure;Samples;Min_cycle;Max_cycle;Signal;HPM_P1;HPM_P2
2021/04/25 00:02:09;;;;;;;14.07;4.55;;;8.50;92.90;;;;;;1870369;76;21119;-76
2021/04/25 00:04:38;;;;;;;12.03;3.92;;;8.40;93.70;;;;;;1868287;75;21041;-76
2021/04/25 00:07:06;;;;;;;15.43;4.60;;;8.40;93.40;;;;;;1870895;75;22149;-76
2021/04/25 00:09:34;;;;;;;8.38;3.72;;;8.40;93.30;;;;;;1867308;75;21061;-76
2021/04/25 00:12:02;;;;;;;17.77;4.62;;;8.30;93.30;;;;;;1870740;76;21201;-76
2021/04/25 00:14:30;;;;;;;8.95;4.15;;;8.30;93.40;;;;;;1875054;75;21061;-77
2021/04/25 00:16:58;;;;;;;9.10;4.22;;;8.20;93.80;;;;;;1868259;75;21174;-75
2021/04/25 00:19:26;;;;;;;9.25;3.77;;;8.20;93.60;;;;;;1869903;75;21108;-76
2021/04/25 00:21:53;;;;;;;11.55;4.10;;;8.20;94.00;;;;;;1872207;75;21148;-77
2021/04/25 00:24:21;;;;;;;10.23;4.45;;;8.20;93.50;;;;;;1868073;75;21798;-77
2021/04/25 00:26:49;;;;;;;13.28;4.35;;;8.20;94.00;;;;;;1870293;75;21111;-77
2021/04/25 00:29:16;;;;;;;8.15;3.45;;;8.30;93.80;;;;;;1868311;75;21069;-77
2021/04/25 00:31:44;;;;;;;14.45;3.65;;;8.30;93.60;;;;;;1870476;75;21161;-77
2021/04/25 00:34:11;;;;;;;11.35;4.08;;;8.40;93.60;;;;;;1867508;76;21384;-77
2021/04/25 00:36:39;;;;;;;12.55;4.10;;;8.40;93.50;;;;;;1863638;75;21462;-76
2021/04/25 00:39:06;;;;;;;12.37;4.08;;;8.40;93.20;;;;;;1865279;75;21185;-76
2021/04/25 00:41:34;;;;;;;8.93;3.55;;;8.40;93.50;;;;;;1867775;76;21109;-76
2021/04/25 00:44:02;;;;;;;8.88;3.20;;;8.50;93.20;;;;;;1865085;75;21162;-76
2021/04/25 00:46:30;;;;;;;11.35;3.83;;;8.50;93.10;;;;;;1880635;73;21518;-76
2021/04/25 00:48:57;;;;;;;8.88;2.75;;;8.60;92.90;;;;;;1870895;75;21194;-76
2021/04/25 00:51:25;;;;;;;10.43;3.22;;;8.70;93.10;;;;;;1867857;76;21638;-77
2021/04/25 00:53:53;;;;;;;9.90;3.40;;;8.70;92.80;;;;;;1867573;75;21150;-77
2021/04/25 00:56:22;;;;;;;8.60;3.00;;;8.70;92.50;;;;;;1867167;75;21073;-77
2021/04/25 00:58:51;;;;;;;10.78;3.40;;;8.60;92.80;;;;;;1864603;76;21131;-77
2021/04/25 01:01:18;;;;;;;12.98;3.08;;;8.60;92.60;;;;;;1870029;75;21167;-76
2021/04/25 01:03:46;;;;;;;10.30;3.45;;;8.60;92.90;;;;;;1865305;75;21147;-76
2021/04/25 01:06:13;;;;;;;8.48;2.80;;;8.60;92.70;;;;;;1868765;75;21018;-76
2021/04/25 01:08:41;;;;;;;10.43;3.25;;;8.60;93.10;;;;;;1863268;75;21068;-77
2021/04/25 01:11:08;;;;;;;10.15;2.98;;;8.60;92.70;;;;;;1863616;75;21179;-76
2021/04/25 01:13:36;;;;;;;11.18;2.95;;;8.60;93.10;;;;;;1865697;75;21747;-75
2021/04/25 01:16:04;;;;;;;12.00;2.83;;;8.60;92.90;;;;;;1865815;75;21835;-76
2021/04/25 01:18:31;;;;;;;8.55;2.67;;;8.60;93.00;;;;;;1867461;75;21384;-76
2021/04/25 01:21:06;;;;;;;7.95;2.52;;;8.60;92.90;;;;;;1862396;75;21112;-76
2021/04/25 01:23:34;;;;;;;8.45;2.42;;;8.70;92.80;;;;;;1871124;75;21128;-77
2021/04/25 01:26:02;;;;;;;7.00;2.20;;;8.70;92.50;;;;;;1860783;75;21088;-77
2021/04/25 01:28:29;;;;;;;11.75;2.27;;;8.70;93.00;;;;;;1868577;75;21230;-76
2021/04/25 01:30:57;;;;;;;8.25;2.10;;;8.80;92.60;;;;;;1865882;75;21186;-77
2021/04/25 01:33:27;;;;;;;10.70;2.50;;;8.80;92.30;;;;;;1869981;75;21371;-76
2021/04/25 01:35:55;;;;;;;9.70;2.08;;;8.80;92.40;;;;;;1861448;76;21094;-76
2021/04/25 01:38:23;;;;;;;6.05;1.87;;;8.80;92.50;;;;;;1868753;76;21100;-77
2021/04/25 01:40:50;;;;;;;10.43;2.15;;;8.80;92.50;;;;;;1869441;75;21168;-74
2021/04/25 01:43:18;;;;;;;10.63;2.45;;;8.80;92.50;;;;;;1864648;76;21087;-77
2021/04/25 01:45:45;;;;;;;10.10;2.08;;;8.90;92.40;;;;;;1866659;75;21110;-77
2021/04/25 01:48:13;;;;;;;15.43;2.50;;;8.80;92.10;;;;;;1870072;76;21112;-77
2021/04/25 01:50:41;;;;;;;5.78;1.85;;;8.90;92.50;;;;;;1872595;75;21995;-77
2021/04/25 01:53:10;;;;;;;7.25;1.98;;;8.90;92.90;;;;;;1865862;76;21582;-76
2021/04/25 01:55:39;;;;;;;11.63;2.22;;;8.90;92.30;;;;;;1866115;75;21571;-76
2021/04/25 01:58:09;;;;;;;5.22;1.62;;;9.00;92.60;;;;;;1867141;75;21072;-76
2021/04/25 02:00:39;;;;;;;12.82;2.17;;;8.90;92.50;;;;;;1864092;75;21116;-77
2021/04/25 02:03:08;;;;;;;10.85;2.08;;;9.00;92.70;;;;;;1864818;76;21174;-76
2021/04/25 02:05:37;;;;;;;10.45;2.10;;;9.00;92.50;;;;;;1877511;75;21096;-78
2021/04/25 02:08:07;;;;;;;7.97;2.05;;;8.90;92.40;;;;;;1863357;76;21060;-77
2021/04/25 02:10:35;;;;;;;11.60;2.55;;;8.90;92.40;;;;;;1862849;75;21135;-74
2021/04/25 02:13:04;;;;;;;7.03;1.82;;;9.00;92.40;;;;;;1867976;75;21084;-77
2021/04/25 02:15:32;;;;;;;11.53;2.62;;;9.00;92.70;;;;;;1871700;75;21048;-77
2021/04/25 02:17:59;;;;;;;9.95;2.12;;;8.80;92.70;;;;;;1869124;76;21697;-77
2021/04/25 02:20:27;;;;;;;6.92;2.05;;;8.90;92.70;;;;;;1870095;76;21105;-78
2021/04/25 02:22:55;;;;;;;9.50;2.02;;;8.90;92.30;;;;;;1870305;75;21080;-79
2021/04/25 02:25:24;;;;;;;10.40;1.92;;;9.00;92.40;;;;;;1870754;76;21052;-78
2021/04/25 02:27:52;;;;;;;9.33;1.52;;;9.00;92.80;;;;;;1867015;76;21048;-78
2021/04/25 02:30:26;;;;;;;5.45;1.92;;;9.00;92.60;;;;;;1867519;75;21052;-77
2021/04/25 02:32:54;;;;;;;9.90;2.02;;;9.00;92.40;;;;;;1868021;75;21131;-76
2021/04/25 02:35:23;;;;;;;8.10;2.20;;;9.10;92.50;;;;;;1865768;75;21080;-77
2021/04/25 02:37:51;;;;;;;11.80;2.02;;;9.10;92.40;;;;;;1868464;75;21601;-76
2021/04/25 02:40:21;;;;;;;7.25;1.80;;;9.10;92.50;;;;;;1862740;75;21037;-76
2021/04/25 02:42:50;;;;;;;10.13;2.05;;;9.10;92.60;;;;;;1865455;76;21088;-75
2021/04/25 02:45:19;;;;;;;12.68;1.87;;;9.10;92.20;;;;;;1862636;75;21112;-76
2021/04/25 02:47:49;;;;;;;14.78;2.22;;;9.00;92.60;;;;;;1869962;75;21057;-77
2021/04/25 02:50:18;;;;;;;8.25;1.92;;;9.00;92.30;;;;;;1868720;75;21537;-77
2021/04/25 02:52:46;;;;;;;9.95;1.72;;;9.00;91.70;;;;;;1867302;76;21168;-76
2021/04/25 02:55:13;;;;;;;10.43;2.20;;;9.10;91.90;;;;;;1872448;75;21193;-75
2021/04/25 02:57:41;;;;;;;12.07;2.20;;;9.10;91.70;;;;;;1871939;75;21068;-76
2021/04/25 03:00:12;;;;;;;8.40;1.62;;;9.10;91.60;;;;;;1866889;75;21530;-76
2021/04/25 03:02:39;;;;;;;8.23;1.85;;;9.20;91.90;;;;;;1865614;75;21237;-76
2021/04/25 03:05:08;;;;;;;8.48;1.98;;;9.20;91.70;;;;;;1867019;75;21150;-76
2021/04/25 03:07:35;;;;;;;13.35;2.00;;;9.20;91.60;;;;;;1864841;75;21065;-76
2021/04/25 03:10:04;;;;;;;8.05;1.57;;;9.20;91.30;;;;;;1861222;75;21170;-77
2021/04/25 03:12:32;;;;;;;5.83;1.67;;;9.10;91.40;;;;;;1866614;75;21119;-77
2021/04/25 03:14:59;;;;;;;7.42;1.80;;;9.10;91.90;;;;;;1870361;75;21485;-76
2021/04/25 03:17:27;;;;;;;8.28;1.70;;;9.10;92.20;;;;;;1866465;75;21108;-76
2021/04/25 03:19:54;;;;;;;12.85;2.52;;;9.10;92.20;;;;;;1865358;75;21131;-76
2021/04/25 03:22:22;;;;;;;11.03;2.37;;;9.10;91.70;;;;;;1867060;75;21487;-77
2021/04/25 03:24:49;;;;;;;12.45;2.10;;;9.10;91.60;;;;;;1870150;75;21140;-76
2021/04/25 03:27:17;;;;;;;11.63;2.12;;;9.10;92.10;;;;;;1869597;76;21627;-76
2021/04/25 03:29:44;;;;;;;8.10;1.60;;;9.20;91.90;;;;;;1868016;75;21056;-77
2021/04/25 03:32:13;;;;;;;10.53;1.67;;;9.10;92.20;;;;;;1860691;76;21253;-76
2021/04/25 03:34:40;;;;;;;10.65;2.25;;;9.10;92.10;;;;;;1870822;75;21577;-76
2021/04/25 03:37:08;;;;;;;12.28;1.90;;;9.10;91.70;;;;;;1868788;75;21550;-77
2021/04/25 03:39:36;;;;;;;9.98;2.02;;;9.10;91.60;;;;;;1869839;75;21178;-76
2021/04/25 03:42:04;;;;;;;12.20;2.55;;;9.10;91.80;;;;;;1869173;76;21242;-75
2021/04/25 03:44:32;;;;;;;6.17;1.62;;;9.20;91.80;;;;;;1869444;75;21099;-77
2021/04/25 03:46:59;;;;;;;11.70;2.67;;;9.10;91.50;;;;;;1868398;75;21077;-77
2021/04/25 03:49:27;;;;;;;7.30;1.72;;;9.10;92.00;;;;;;1865343;75;21135;-77
2021/04/25 03:51:55;;;;;;;10.75;2.40;;;9.20;91.90;;;;;;1864672;75;21606;-77
2021/04/25 03:54:23;;;;;;;11.40;2.33;;;9.10;91.80;;;;;;1863879;75;21530;-77
2021/04/25 03:56:52;;;;;;;12.37;2.22;;;9.10;92.10;;;;;;1864690;75;21183;-76
2021/04/25 03:59:20;;;;;;;12.18;2.30;;;9.20;92.00;;;;;;1863044;75;21139;-76
2021/04/25 04:01:47;;;;;;;12.37;1.87;;;9.20;92.00;;;;;;1869686;75;21245;-77
2021/04/25 04:04:14;;;;;;;17.98;1.98;;;9.20;91.90;;;;;;1866654;76;21601;-77
2021/04/25 04:06:42;;;;;;;14.07;2.60;;;9.20;91.40;;;;;;1865771;75;21032;-75
2021/04/25 04:09:10;;;;;;;6.28;1.67;;;9.20;91.70;;;;;;1869913;75;21060;-77
2021/04/25 04:11:37;;;;;;;8.48;1.55;;;9.20;91.50;;;;;;1867637;75;21100;-77
2021/04/25 04:14:05;;;;;;;7.75;1.80;;;9.20;91.20;;;;;;1869395;76;21127;-77
2021/04/25 04:16:32;;;;;;;6.78;1.72;;;9.20;90.90;;;;;;1871057;75;21118;-76
2021/04/25 04:19:00;;;;;;;10.50;2.00;;;9.20;92.10;;;;;;1868697;75;21097;-76
2021/04/25 04:21:27;;;;;;;7.28;1.65;;;9.30;91.80;;;;;;1866350;76;21198;-77
2021/04/25 04:23:55;;;;;;;11.88;2.20;;;9.20;91.60;;;;;;1867757;76;21092;-76
2021/04/25 04:26:22;;;;;;;8.70;2.12;;;9.20;91.50;;;;;;1869447;75;21146;-79
2021/04/25 04:28:50;;;;;;;14.68;2.02;;;9.20;91.70;;;;;;1865404;75;21057;-76
2021/04/25 04:31:17;;;;;;;8.43;1.85;;;9.20;91.70;;;;;;1871596;75;21609;-77
2021/04/25 04:33:45;;;;;;;7.00;1.70;;;9.30;92.40;;;;;;1865555;75;21136;-77
2021/04/25 04:36:12;;;;;;;10.70;2.20;;;9.20;92.50;;;;;;1865161;75;21100;-77
2021/04/25 04:38:40;;;;;;;10.75;2.37;;;9.20;92.50;;;;;;1864435;75;21077;-76
2021/04/25 04:41:09;;;;;;;11.83;2.12;;;9.20;92.20;;;;;;1864011;76;21617;-77
2021/04/25 04:43:37;;;;;;;7.90;1.90;;;9.20;92.50;;;;;;1864290;75;21124;-77
2021/04/25 04:46:04;;;;;;;8.05;2.10;;;9.10;92.40;;;;;;1871641;75;21112;-77
2021/04/25 04:48:32;;;;;;;8.05;1.60;;;9.20;92.50;;;;;;1869739;75;22185;-78
2021/04/25 04:50:59;;;;;;;10.90;2.05;;;9.20;92.70;;;;;;1868262;76;21097;-78
2021/04/25 04:53:27;;;;;;;12.28;2.05;;;9.10;92.20;;;;;;1868625;75;21105;-77
2021/04/25 04:55:54;;;;;;;8.83;1.92;;;9.10;92.80;;;;;;1868981;75;21104;-77
2021/04/25 04:58:22;;;;;;;9.55;2.15;;;9.20;92.60;;;;;;1865959;75;21653;-77
2021/04/25 05:00:50;;;;;;;11.30;2.25;;;9.20;92.30;;;;;;1865524;75;21571;-77
2021/04/25 05:03:18;;;;;;;7.85;1.77;;;9.20;92.30;;;;;;1870309;76;21127;-76
2021/04/25 05:05:45;;;;;;;8.75;1.65;;;9.20;92.30;;;;;;1866829;75;21735;-77
2021/04/25 05:08:13;;;;;;;10.63;1.80;;;9.30;92.50;;;;;;1866635;75;21242;-76
2021/04/25 05:10:40;;;;;;;9.88;1.92;;;9.30;92.10;;;;;;1866474;75;21144;-76
2021/04/25 05:13:10;;;;;;;9.48;1.70;;;9.30;92.80;;;;;;1863605;75;21100;-76
2021/04/25 05:15:38;;;;;;;13.80;2.20;;;9.20;92.20;;;;;;1869757;75;21186;-76
2021/04/25 05:18:06;;;;;;;8.83;2.17;;;9.20;92.10;;;;;;1867792;75;21132;-76
2021/04/25 05:20:34;;;;;;;10.00;1.57;;;9.30;92.80;;;;;;1874403;75;21157;-76
2021/04/25 05:23:01;;;;;;;9.15;1.82;;;9.30;92.20;;;;;;1876174;75;21116;-76
2021/04/25 05:25:29;;;;;;;13.50;2.02;;;9.30;92.20;;;;;;1865009;75;21136;-76
2021/04/25 05:27:57;;;;;;;6.55;1.65;;;9.00;92.00;;;;;;1868496;75;21076;-76
2021/04/25 05:30:24;;;;;;;10.88;1.60;;;9.00;92.30;;;;;;1863466;75;21534;-76
2021/04/25 05:32:52;;;;;;;7.53;2.00;;;9.10;92.10;;;;;;1867013;76;21427;-76
2021/04/25 05:35:20;;;;;;;10.20;1.82;;;9.20;92.00;;;;;;1866963;75;21061;-76
2021/04/25 05:37:47;;;;;;;11.90;1.67;;;9.20;92.00;;;;;;1868525;75;21170;-76
2021/04/25 05:40:15;;;;;;;9.73;2.22;;;9.30;91.90;;;;;;1868010;75;21186;-76
2021/04/25 05:42:43;;;;;;;10.00;1.60;;;9.30;91.30;;;;;;1871941;75;22493;-76
2021/04/25 05:45:21;;;;;;;7.22;1.85;;;9.30;91.80;;;;;;1871605;75;21167;-76
2021/04/25 05:47:54;;;;;;;11.80;1.95;;;9.30;91.60;;;;;;1868499;76;21257;-76
2021/04/25 05:50:23;;;;;;;5.12;1.90;;;9.40;91.50;;;;;;1867107;75;21668;-76
2021/04/25 05:52:52;;;;;;;9.70;1.70;;;9.50;90.90;;;;;;1866230;75;21182;-76
2021/04/25 05:55:20;;;;;;;12.28;1.92;;;9.40;90.70;;;;;;1868579;75;21166;-76
2021/04/25 05:57:48;;;;;;;11.78;2.15;;;9.20;90.90;;;;;;1866679;76;21108;-76
2021/04/25 06:00:19;;;;;;;10.93;2.00;;;9.30;91.50;;;;;;1869699;76;21217;-76
2021/04/25 06:02:46;;;;;;;9.68;1.95;;;9.40;91.10;;;;;;1866367;76;21582;-76
2021/04/25 06:05:14;;;;;;;18.45;2.20;;;9.60;91.30;;;;;;1869019;75;21065;-76
2021/04/25 06:07:42;;;;;;;9.70;1.65;;;9.60;90.30;;;;;;1868157;75;21123;-76
2021/04/25 06:10:10;;;;;;;9.33;1.80;;;9.60;90.40;;;;;;1868791;75;21170;-77
2021/04/25 06:12:38;;;;;;;12.73;1.98;;;9.80;90.60;;;;;;1867559;75;21163;-77
2021/04/25 06:15:07;;;;;;;10.70;1.80;;;9.80;90.70;;;;;;1863880;75;21107;-77
2021/04/25 06:17:35;;;;;;;11.80;1.87;;;9.80;90.10;;;;;;1868660;75;21057;-77
2021/04/25 06:20:04;;;;;;;10.08;2.00;;;9.90;90.30;;;;;;1871780;75;21126;-76
2021/04/25 06:22:31;;;;;;;8.80;1.67;;;9.90;90.20;;;;;;1871786;75;21253;-77
2021/04/25 06:24:59;;;;;;;7.45;1.80;;;9.90;90.30;;;;;;1873653;76;21151;-77
2021/04/25 06:27:27;;;;;;;7.85;1.20;;;10.00;89.60;;;;;;1866452;76;21088;-76
2021/04/25 06:29:55;;;;;;;8.53;1.90;;;9.80;90.40;;;;;;1868920;75;21771;-77
2021/04/25 06:32:23;;;;;;;7.03;1.55;;;9.90;90.40;;;;;;1869349;75;21132;-77
2021/04/25 06:34:50;;;;;;;12.13;2.40;;;10.10;88.90;;;;;;1868908;75;21060;-76
2021/04/25 06:37:18;;;;;;;13.20;1.72;;;10.00;89.60;;;;;;1869387;75;21139;-76
2021/04/25 06:39:46;;;;;;;10.13;1.65;;;10.00;90.10;;;;;;1867684;75;21048;-77
2021/04/25 06:42:13;;;;;;;10.18;1.65;;;10.00;89.10;;;;;;1865712;75;21105;-77
2021/04/25 06:44:41;;;;;;;8.48;1.90;;;9.90;89.00;;;;;;1872738;75;21354;-76
2021/04/25 06:47:08;;;;;;;11.12;1.90;;;9.90;89.50;;;;;;1864625;75;21091;-75
2021/04/25 06:49:36;;;;;;;11.65;1.70;;;9.70;89.30;;;;;;1871603;76;21181;-76
2021/04/25 06:52:04;;;;;;;9.58;2.05;;;9.70;89.80;;;;;;1866815;75;21731;-77
2021/04/25 06:54:31;;;;;;;10.20;1.80;;;9.60;89.10;;;;;;1862501;75;21087;-76
2021/04/25 06:56:59;;;;;;;11.05;1.90;;;9.70;90.10;;;;;;1871723;75;21100;-76
2021/04/25 06:59:26;;;;;;;6.80;1.60;;;9.80;89.90;;;;;;1870031;75;21185;-76
2021/04/25 07:01:54;;;;;;;9.78;1.80;;;10.00;89.90;;;;;;1868417;75;21659;-75
2021/04/25 07:04:21;;;;;;;7.08;1.60;;;10.00;89.40;;;;;;1873335;75;21163;-76
2021/04/25 07:06:49;;;;;;;6.97;1.60;;;10.10;88.90;;;;;;1866281;76;21506;-77
2021/04/25 07:09:16;;;;;;;8.23;1.75;;;10.20;88.60;;;;;;1872736;75;21169;-76
2021/04/25 07:11:44;;;;;;;7.33;1.98;;;10.40;90.00;;;;;;1869503;75;21659;-76
2021/04/25 07:14:11;;;;;;;10.05;2.15;;;10.50;87.60;;;;;;1870007;76;21337;-77
2021/04/25 07:16:39;;;;;;;9.55;2.05;;;10.50;88.00;;;;;;1871983;75;21116;-76
2021/04/25 07:19:06;;;;;;;10.10;2.22;;;10.40;86.50;;;;;;1868975;75;21182;-76
2021/04/25 07:21:34;;;;;;;6.47;1.75;;;10.60;84.40;;;;;;1868308;75;21175;-76
2021/04/25 07:24:01;;;;;;;4.70;1.82;;;10.60;83.30;;;;;;1864446;75;21573;-76
2021/04/25 07:26:29;;;;;;;9.38;1.70;;;10.60;84.60;;;;;;1868240;76;21182;-76
2021/04/25 07:28:56;;;;;;;8.93;2.12;;;10.50;84.30;;;;;;1867779;75;21382;-76
2021/04/25 07:31:24;;;;;;;7.25;2.10;;;10.50;82.90;;;;;;1875916;75;21586;-75
2021/04/25 07:33:51;;;;;;;7.45;2.30;;;10.50;83.20;;;;;;1871211;75;21085;-76
2021/04/25 07:36:19;;;;;;;8.20;1.90;;;10.40;81.80;;;;;;1865718;75;21097;-75
2021/04/25 07:38:46;;;;;;;8.05;2.40;;;10.40;82.70;;;;;;1870338;75;21135;-75
2021/04/25 07:41:14;;;;;;;5.95;2.30;;;10.40;83.70;;;;;;1872216;75;21723;-76
2021/04/25 07:43:41;;;;;;;6.17;2.40;;;10.50;82.40;;;;;;1872874;75;21598;-75
2021/04/25 07:46:09;;;;;;;6.90;2.20;;;10.60;83.40;;;;;;1865929;75;21178;-76
2021/04/25 07:48:37;;;;;;;9.48;2.40;;;10.60;82.80;;;;;;1866133;76;21045;-73
2021/04/25 07:51:04;;;;;;;4.85;2.20;;;10.50;84.20;;;;;;1871604;75;21084;-74
2021/04/25 07:53:32;;;;;;;9.43;2.30;;;10.50;84.90;;;;;;1871008;75;21739;-75
2021/04/25 07:55:59;;;;;;;7.92;2.37;;;10.20;86.50;;;;;;1865096;76;21166;-75
2021/04/25 07:58:27;;;;;;;7.70;2.72;;;10.30;85.70;;;;;;1866221;75;21118;-72
2021/04/25 08:00:54;;;;;;;7.58;2.30;;;10.40;85.60;;;;;;1871299;75;21514;-71
2021/04/25 08:03:22;;;;;;;6.70;2.42;;;10.40;85.00;;;;;;1866925;76;21098;-72
2021/04/25 08:05:49;;;;;;;9.05;2.65;;;10.60;84.80;;;;;;1867638;75;21065;-73
2021/04/25 08:08:17;;;;;;;7.17;2.40;;;10.60;84.80;;;;;;1873213;75;21092;-72
2021/04/25 08:10:45;;;;;;;11.43;3.95;;;10.70;84.80;;;;;;1871122;75;21080;-73
2021/04/25 08:13:13;;;;;;;8.45;3.42;;;10.90;86.00;;;;;;1872207;75;21139;-71
2021/04/25 08:15:40;;;;;;;8.63;2.55;;;11.00;83.30;;;;;;1871565;76;21162;-73
2021/04/25 08:18:08;;;;;;;6.60;2.52;;;11.10;82.30;;;;;;1870653;75;21136;-74
2021/04/25 08:20:36;;;;;;;5.87;2.87;;;10.90;81.60;;;;;;1872521;75;21100;-74
2021/04/25 08:23:04;;;;;;;5.45;2.50;;;10.90;82.40;;;;;;1867171;75;21068;-71
2021/04/25 08:25:31;;;;;;;6.92;2.33;;;10.70;81.80;;;;;;1867241;75;21538;-73
2021/04/25 08:27:59;;;;;;;5.55;2.37;;;10.90;83.70;;;;;;1862779;75;21566;-72
2021/04/25 08:30:27;;;;;;;6.35;2.40;;;11.20;81.50;;;;;;1871883;75;21158;-72
2021/04/25 08:32:54;;;;;;;7.08;2.37;;;11.20;82.10;;;;;;1868708;75;21125;-72
2021/04/25 08:35:22;;;;;;;4.47;2.62;;;11.20;79.30;;;;;;1866530;76;21103;-72
2021/04/25 08:37:49;;;;;;;8.90;2.65;;;11.30;79.30;;;;;;1874869;75;21080;-72
2021/04/25 08:40:17;;;;;;;5.00;2.30;;;11.40;79.30;;;;;;1863898;75;21097;-71
2021/04/25 08:42:45;;;;;;;7.67;2.62;;;11.40;77.90;;;;;;1869444;75;21136;-75
2021/04/25 08:45:16;;;;;;;6.15;2.20;;;11.20;79.90;;;;;;1866706;76;21107;-74
2021/04/25 08:47:52;;;;;;;6.17;2.20;;;11.00;78.20;;;;;;1869176;75;21199;-74
2021/04/25 08:50:20;;;;;;;9.75;2.42;;;11.20;78.10;;;;;;1865274;76;21080;-76
2021/04/25 08:52:49;;;;;;;6.92;2.22;;;11.30;78.40;;;;;;1870565;76;21084;-75
2021/04/25 08:55:16;;;;;;;7.97;2.47;;;11.20;80.00;;;;;;1870240;76;21017;-76
2021/04/25 08:57:44;;;;;;;5.62;2.20;;;11.20;79.30;;;;;;1870601;76;21064;-76
2021/04/25 09:00:12;;;;;;;5.75;2.77;;;11.40;78.80;;;;;;1870246;75;21096;-76
2021/04/25 09:02:40;;;;;;;6.75;2.25;;;11.40;78.40;;;;;;1871503;76;21172;-76
2021/04/25 09:05:08;;;;;;;4.37;1.92;;;11.70;79.80;;;;;;1864682;75;21112;-78
2021/04/25 09:07:36;;;;;;;4.70;1.80;;;11.70;75.70;;;;;;1868429;75;21088;-76
2021/04/25 09:10:09;;;;;;;8.65;2.08;;;11.40;76.60;;;;;;1872899;75;21116;-77
2021/04/25 09:12:38;;;;;;;3.77;2.10;;;11.00;78.00;;;;;;1871695;75;21218;-77
2021/04/25 09:15:12;;;;;;;3.12;1.70;;;10.90;78.00;;;;;;1869356;75;21113;-79
2021/04/25 09:17:55;;;;;;;6.28;2.02;;;11.00;79.90;;;;;;1859478;76;21145;-77
2021/04/25 09:20:47;;;;;;;6.92;1.77;;;11.30;81.20;;;;;;1870878;75;21129;-77
2021/04/25 09:23:25;;;;;;;3.47;1.60;;;11.70;80.20;;;;;;1873978;75;21140;-76
2021/04/25 09:26:00;;;;;;;5.60;1.72;;;12.10;76.40;;;;;;1866960;75;21858;-75
2021/04/25 09:28:29;;;;;;;3.98;1.42;;;12.30;73.80;;;;;;1863143;76;21041;-76
2021/04/25 09:30:59;;;;;;;4.50;1.60;;;12.00;72.00;;;;;;1868414;75;21115;-75
2021/04/25 09:33:28;;;;;;;3.55;1.60;;;12.30;71.40;;;;;;1864625;76;21145;-76
2021/04/25 09:36:00;;;;;;;5.62;1.50;;;12.50;72.50;;;;;;1864721;75;21567;-77
2021/04/25 09:38:35;;;;;;;2.80;1.57;;;12.90;72.50;;;;;;1867984;76;21202;-76
2021/04/25 09:41:03;;;;;;;4.83;1.45;;;12.80;71.60;;;;;;1868148;75;21140;-75
2021/04/25 09:43:39;;;;;;;4.35;1.20;;;13.00;70.20;;;;;;1865805;76;21130;-76
2021/04/25 09:46:06;;;;;;;4.83;1.50;;;13.50;70.90;;;;;;1864795;76;21132;-76
2021/04/25 09:48:36;;;;;;;7.45;1.55;;;13.80;68.20;;;;;;1871938;73;21632;-77
2021/04/25 09:51:20;;;;;;;3.98;1.50;;;13.60;66.20;;;;;;1869007;76;21151;-76
2021/04/25 09:53:56;;;;;;;3.52;1.20;;;13.70;66.80;;;;;;1867257;75;21107;-77
2021/04/25 09:56:26;;;;;;;5.58;1.90;;;13.80;64.40;;;;;;1869062;75;21148;-77
2021/04/25 09:59:02;;;;;;;3.70;1.10;;;13.80;62.90;;;;;;1868726;75;21065;-77
2021/04/25 10:01:36;;;;;;;3.40;1.20;;;13.30;62.70;;;;;;1870377;76;21133;-77
2021/04/25 10:04:05;;;;;;;3.37;1.25;;;13.40;63.20;;;;;;1869198;76;21120;-77
2021/04/25 10:06:52;;;;;;;3.25;1.25;;;13.00;65.40;;;;;;1872860;75;21065;-77
2021/04/25 10:09:21;;;;;;;3.55;1.60;;;12.50;66.30;;;;;;1868171;76;21107;-77
2021/04/25 10:11:49;;;;;;;7.40;1.10;;;12.10;70.30;;;;;;1866629;75;21573;-77
2021/04/25 10:14:18;;;;;;;7.60;1.27;;;12.30;74.30;;;;;;1867845;75;21100;-75
2021/04/25 10:16:45;;;;;;;4.37;1.20;;;12.80;68.70;;;;;;1866973;76;21104;-76
2021/04/25 10:19:14;;;;;;;3.37;1.10;;;13.40;63.50;;;;;;1865686;75;21115;-79
2021/04/25 10:21:46;;;;;;;2.95;1.00;;;13.60;64.80;;;;;;1864995;76;21080;-78
2021/04/25 10:24:18;;;;;;;4.30;1.32;;;14.10;66.10;;;;;;1872561;76;21033;-77
2021/04/25 10:27:03;;;;;;;1.98;0.90;;;14.70;64.10;;;;;;1873185;75;21032;-78
2021/04/25 10:29:48;;;;;;;3.87;1.17;;;15.10;64.00;;;;;;1871449;75;21645;-78
2021/04/25 10:32:18;;;;;;;5.25;1.30;;;15.10;62.90;;;;;;1759694;80;21239;-77
2021/04/25 10:34:50;;;;;;;3.20;1.15;;;14.70;63.60;;;;;;1833615;76;21440;-80
2021/04/25 10:37:16;;;;;;;5.20;1.45;;;14.40;61.20;;;;;;1862944;75;21100;-78
2021/04/25 10:39:56;;;;;;;3.08;1.00;;;14.40;62.10;;;;;;1871749;76;21140;-78
2021/04/25 10:42:29;;;;;;;5.50;1.15;;;14.70;59.70;;;;;;1863563;75;21137;-79
2021/04/25 10:45:05;;;;;;;5.12;1.12;;;14.90;61.60;;;;;;1875238;75;21132;-80
2021/04/25 10:47:29;;;;;;;;;;;15.20;61.30;;;;;;1869539;76;21622;-80
2021/04/25 10:50:02;;;;;;;5.60;1.82;;;15.50;60.80;;;;;;1872536;76;20559;-76
2021/04/25 10:52:29;;;;;;;;;;;15.20;60.30;;;;;;1870353;75;21112;-81
2021/04/25 10:55:19;;;;;;;6.30;1.85;;;15.10;60.90;;;;;;1868781;76;20154;-75
2021/04/25 10:57:58;;;;;;;15.83;6.17;;;14.90;61.50;;;;;;1861647;76;21108;-77
2021/04/25 11:00:37;;;;;;;3.87;1.72;;;14.60;64.00;;;;;;1868133;76;21111;-75
2021/04/25 11:03:10;;;;;;;5.37;1.42;;;14.30;63.70;;;;;;1865219;76;21115;-79
2021/04/25 11:05:41;;;;;;;4.08;1.15;;;14.90;62.10;;;;;;1869997;76;21165;-76
2021/04/25 11:08:18;;;;;;;2.95;1.00;;;14.60;61.90;;;;;;1870678;76;21191;-75
2021/04/25 11:11:07;;;;;;;8.38;1.50;;;14.60;60.90;;;;;;1870110;75;21150;-75
2021/04/25 11:13:41;;;;;;;8.15;1.20;;;14.70;62.80;;;;;;1870368;75;21642;-75
2021/04/25 11:16:11;;;;;;;5.00;1.90;;;15.40;62.00;;;;;;1867054;76;21567;-73
2021/04/25 11:18:51;;;;;;;4.78;2.08;;;15.80;58.90;;;;;;1870459;76;21037;-76
2021/04/25 11:21:32;;;;;;;3.22;1.27;;;16.20;59.20;;;;;;1869902;76;21132;-76
2021/04/25 11:24:05;;;;;;;4.03;1.00;;;16.50;55.90;;;;;;1870074;75;21115;-77
2021/04/25 11:26:41;;;;;;;2.47;0.90;;;16.70;54.80;;;;;;1870464;75;21589;-77
2021/04/25 11:29:11;;;;;;;1.70;0.80;;;17.20;54.80;;;;;;1868016;75;21182;-76
2021/04/25 11:31:49;;;;;;;3.58;1.22;;;18.40;56.20;;;;;;1861636;75;21192;-75
2021/04/25 11:34:32;;;;;;;4.83;1.17;;;19.50;52.40;;;;;;1869011;76;21143;-75
2021/04/25 11:37:01;;;;;;;2.47;0.98;;;18.90;52.30;;;;;;1871878;75;22001;-77
2021/04/25 11:39:35;;;;;;;5.65;1.10;;;17.80;53.90;;;;;;1877558;75;21595;-76
2021/04/25 11:42:03;;;;;;;2.75;1.07;;;17.30;53.00;;;;;;1870981;76;22306;-78
2021/04/25 11:44:38;;;;;;;2.50;0.90;;;16.50;53.10;;;;;;1871341;75;21077;-77
2021/04/25 11:47:11;;;;;;;4.05;1.00;;;16.00;54.80;;;;;;1863454;75;21069;-80
2021/04/25 11:49:41;;;;;;;3.08;0.80;;;15.90;53.20;;;;;;1864652;75;21049;-77
2021/04/25 11:52:23;;;;;;;3.80;1.10;;;16.80;55.30;;;;;;1871917;75;21140;-76
2021/04/25 11:55:05;;;;;;;2.77;0.90;;;18.30;53.00;;;;;;1872668;75;21667;-76
2021/04/25 11:57:33;;;;;;;;;;;19.40;50.30;;;;;;1867396;75;20994;-76
2021/04/25 12:00:04;;;;;;;1.40;0.80;;;19.30;48.70;;;;;;1868969;75;20178;-76
2021/04/25 12:02:36;;;;;;;1.32;0.70;;;18.80;49.40;;;;;;1870073;76;21128;-76
2021/04/25 12:05:10;;;;;;;4.05;1.00;;;17.90;49.60;;;;;;1867619;76;21146;-76
2021/04/25 12:07:40;;;;;;;4.55;0.90;;;17.00;49.80;;;;;;1869723;76;21021;-76
2021/04/25 12:10:32;;;;;;;2.08;0.93;;;17.20;52.70;;;;;;1866530;76;21048;-77
2021/04/25 12:13:00;;;;;;;;;;;17.30;53.20;;;;;;1873333;76;21169;-76
2021/04/25 12:15:34;;;;;;;1.62;0.70;;;18.10;50.50;;;;;;1874353;76;20177;-78
2021/04/25 12:18:01;;;;;;;2.45;0.80;;;17.80;52.00;;;;;;1869283;76;21057;-77
2021/04/25 12:20:29;;;;;;;5.67;1.20;;;18.90;49.90;;;;;;1868549;75;21104;-77
2021/04/25 12:22:57;;;;;;;1.02;0.50;;;20.20;47.30;;;;;;1868474;76;21642;-76
2021/04/25 12:25:26;;;;;;;3.55;0.80;;;21.20;47.00;;;;;;1870084;75;21135;-76
2021/04/25 12:27:57;;;;;;;2.08;0.70;;;22.00;45.60;;;;;;1871162;75;21210;-76
2021/04/25 12:30:27;;;;;;;1.15;0.50;;;23.20;43.40;;;;;;1873258;75;21108;-77
2021/04/25 12:33:20;;;;;;;1.30;0.65;;;24.00;42.70;;;;;;1869945;76;21104;-78
2021/04/25 12:35:50;;;;;;;1.25;0.60;;;24.40;39.90;;;;;;1872071;76;21107;-78
2021/04/25 12:38:23;;;;;;;1.82;0.50;;;24.90;38.50;;;;;;1869478;75;21103;-79
2021/04/25 12:41:03;;;;;;;0.65;0.50;;;24.90;37.50;;;;;;1870292;76;21088;-77
2021/04/25 12:43:33;;;;;;;1.27;0.55;;;25.30;36.20;;;;;;1873115;76;20994;-78
2021/04/25 12:46:13;;;;;;;1.70;0.60;;;24.90;40.10;;;;;;1871925;76;21643;-77
2021/04/25 12:48:43;;;;;;;1.10;0.60;;;25.20;38.20;;;;;;1870747;75;21037;-78
2021/04/25 12:51:17;;;;;;;2.15;1.30;;;25.00;35.50;;;;;;1868665;74;21202;-77
2021/04/25 12:53:53;;;;;;;1.35;0.50;;;24.20;37.40;;;;;;1864466;76;21155;-79
2021/04/25 12:56:30;;;;;;;1.75;0.50;;;25.30;36.40;;;;;;1868380;75;21072;-78
2021/04/25 12:59:00;;;;;;;1.12;0.45;;;26.50;35.60;;;;;;1870793;75;21162;-77
2021/04/25 13:01:29;;;;;;;1.87;0.60;;;27.30;34.20;;;;;;1876060;75;21253;-76
2021/04/25 13:03:57;;;;;;;0.68;0.40;;;27.20;33.60;;;;;;1867108;76;21100;-76